createdAt,value
2018-11-29T00:01:35.734Z,4.80
2018-11-29T00:06:38.293Z,4.80
2018-11-29T00:11:40.823Z,4.70
2018-11-29T00:16:43.341Z,4.80
2018-11-29T00:21:45.857Z,4.90
2018-11-29T00:26:48.470Z,4.90
2018-11-29T00:31:51.045Z,4.90
2018-11-29T00:36:53.571Z,4.90
2018-11-29T00:41:56.090Z,5.00
2018-11-29T00:46:58.637Z,4.90
2018-11-29T00:52:01.174Z,5.00
2018-11-29T00:57:04.170Z,5.00
2018-11-29T01:02:06.687Z,5.00
2018-11-29T01:07:09.342Z,5.00
2018-11-29T01:12:11.879Z,6.10
2018-11-29T01:17:14.489Z,5.20
2018-11-29T01:22:17.014Z,5.20
2018-11-29T01:27:19.536Z,5.20
2018-11-29T01:32:22.167Z,5.10
2018-11-29T01:37:24.677Z,5.10
2018-11-29T01:42:27.202Z,5.10
2018-11-29T01:47:29.721Z,5.10
2018-11-29T01:52:32.254Z,5.30
2018-11-29T01:57:34.906Z,5.30
2018-11-29T02:02:37.434Z,5.40
2018-11-29T02:07:39.982Z,5.40
2018-11-29T02:12:42.546Z,5.50
2018-11-29T02:17:45.135Z,5.60
2018-11-29T02:22:47.887Z,5.60
2018-11-29T02:27:50.543Z,5.60
2018-11-29T02:32:53.290Z,5.70
2018-11-29T02:37:55.843Z,5.70
2018-11-29T02:42:58.389Z,5.60
2018-11-29T02:48:00.897Z,5.10
2018-11-29T02:53:03.450Z,4.80
2018-11-29T02:58:05.981Z,4.50
2018-11-29T03:03:08.501Z,4.30
2018-11-29T03:08:11.130Z,4.10
2018-11-29T03:13:13.667Z,3.90
2018-11-29T03:18:16.189Z,3.70
2018-11-29T03:23:18.722Z,3.60
2018-11-29T03:28:21.250Z,3.40
2018-11-29T03:33:23.799Z,2.00
2018-11-29T03:38:26.434Z,3.30
2018-11-29T03:43:29.012Z,3.50
2018-11-29T03:48:31.523Z,3.70
2018-11-29T03:53:34.063Z,4.00
2018-11-29T03:58:36.601Z,4.20
2018-11-29T04:03:39.273Z,4.30
2018-11-29T04:08:41.777Z,4.20
2018-11-29T04:13:44.305Z,3.80
2018-11-29T04:18:46.842Z,3.40
2018-11-29T04:23:49.362Z,3.20
2018-11-29T04:28:51.979Z,3.10
2018-11-29T04:33:54.516Z,3.00
2018-11-29T04:38:57.082Z,2.90
2018-11-29T04:43:59.678Z,2.80
2018-11-29T04:49:02.203Z,2.70
2018-11-29T04:54:05.636Z,2.60
2018-11-29T04:59:08.370Z,2.40
2018-11-29T05:04:10.914Z,2.50
2018-11-29T05:09:13.456Z,2.30
2018-11-29T05:14:15.975Z,2.20
2018-11-29T05:19:18.503Z,2.10
2018-11-29T05:24:21.162Z,2.10
2018-11-29T05:29:23.718Z,2.10
2018-11-29T05:34:26.240Z,2.10
2018-11-29T05:39:28.799Z,2.10
2018-11-29T05:44:31.354Z,2.00
2018-11-29T05:49:33.978Z,2.00
2018-11-29T05:54:36.523Z,1.90
2018-11-29T05:59:39.046Z,1.80
2018-11-29T06:04:41.599Z,1.60
2018-11-29T06:09:44.143Z,1.50
2018-11-29T06:14:46.690Z,1.40
2018-11-29T06:19:49.213Z,1.30
2018-11-29T06:24:51.722Z,1.40
2018-11-29T06:29:54.235Z,1.40
2018-11-29T06:34:56.765Z,1.40
2018-11-29T06:39:59.962Z,1.40
2018-11-29T06:45:02.647Z,1.30
2018-11-29T06:50:07.888Z,1.20
2018-11-29T06:55:27.358Z,1.20
2018-11-29T07:00:30.412Z,1.20
2018-11-29T07:05:32.946Z,1.10
2018-11-29T07:10:35.789Z,1.10
2018-11-29T07:15:38.324Z,1.20
2018-11-29T07:20:40.982Z,1.20
2018-11-29T07:30:45.945Z,1.60
2018-11-29T07:35:48.541Z,1.80
2018-11-29T07:40:51.128Z,2.00
2018-11-29T07:45:53.663Z,2.20
2018-11-29T07:50:56.214Z,2.50
2018-11-29T07:55:58.740Z,2.80
2018-11-29T08:01:01.279Z,2.90
2018-11-29T08:06:03.901Z,3.30
2018-11-29T08:11:06.492Z,3.90
2018-11-29T08:16:09.101Z,4.40
2018-11-29T08:21:11.630Z,6.00
2018-11-29T08:26:14.290Z,7.20
2018-11-29T08:31:16.942Z,8.10
2018-11-29T08:36:19.587Z,8.10
2018-11-29T08:41:22.133Z,8.60
2018-11-29T08:46:24.677Z,9.80
2018-11-29T08:51:27.250Z,9.20
2018-11-29T08:56:29.826Z,10.60
2018-11-29T09:01:32.385Z,10.90
2018-11-29T09:06:34.921Z,11.80
2018-11-29T09:11:37.518Z,11.80
2018-11-29T09:16:40.104Z,11.70
2018-11-29T09:21:42.681Z,11.90
2018-11-29T09:26:45.215Z,12.80
2018-11-29T09:31:47.777Z,13.30
2018-11-29T09:36:50.359Z,13.40
2018-11-29T09:41:52.914Z,13.10
2018-11-29T09:46:55.465Z,12.50
2018-11-29T09:51:58.003Z,12.90
2018-11-29T09:57:00.555Z,13.90
2018-11-29T10:02:03.138Z,14.30
2018-11-29T10:07:05.767Z,14.70
2018-11-29T10:12:08.325Z,14.30
2018-11-29T10:17:10.865Z,15.50
2018-11-29T10:22:13.928Z,16.20
2018-11-29T10:27:16.018Z,17.00
2018-11-29T10:32:18.587Z,17.80
2018-11-29T10:37:21.160Z,17.70
2018-11-29T10:42:23.690Z,18.20
2018-11-29T10:47:26.281Z,18.40
2018-11-29T10:52:28.830Z,18.00
2018-11-29T10:57:31.362Z,16.30
2018-11-29T11:02:34.010Z,15.30
2018-11-29T11:07:36.603Z,14.90
2018-11-29T11:12:39.130Z,14.90
2018-11-29T11:17:41.662Z,14.90
2018-11-29T11:22:44.294Z,15.00
2018-11-29T11:27:46.834Z,14.70
2018-11-29T11:32:50.584Z,14.90
2018-11-29T11:37:53.130Z,14.80
2018-11-29T11:42:55.695Z,13.50
2018-11-29T11:48:03.254Z,12.80
2018-11-29T11:53:00.840Z,12.60
2018-11-29T11:58:03.473Z,12.70
2018-11-29T12:03:10.571Z,12.30
2018-11-29T12:08:13.158Z,12.80
2018-11-29T12:13:15.717Z,11.70
2018-11-29T12:18:18.290Z,11.20
2018-11-29T12:23:20.906Z,10.70
2018-11-29T12:28:23.471Z,10.70
2018-11-29T12:33:26.030Z,10.50
2018-11-29T12:38:28.603Z,10.30
2018-11-29T12:43:31.202Z,10.20
2018-11-29T12:48:33.782Z,9.80
2018-11-29T12:53:36.323Z,9.60
2018-11-29T12:58:38.868Z,9.50
2018-11-29T13:03:41.421Z,9.60
2018-11-29T13:08:43.970Z,9.40
2018-11-29T13:13:46.554Z,9.20
2018-11-29T13:18:49.106Z,9.30
2018-11-29T13:23:51.699Z,9.20
2018-11-29T13:28:54.290Z,9.30
2018-11-29T13:33:56.860Z,9.30
2018-11-29T13:38:59.426Z,9.40
2018-11-29T13:44:02.010Z,9.50
2018-11-29T13:49:05.058Z,9.50
2018-11-29T13:54:07.615Z,9.10
2018-11-29T13:59:10.256Z,8.70
2018-11-29T14:04:12.790Z,8.50
2018-11-29T14:09:15.398Z,8.40
2018-11-29T14:14:17.969Z,8.30
2018-11-29T14:19:20.554Z,8.20
2018-11-29T14:24:23.135Z,8.00
2018-11-29T14:30:37.821Z,7.90
2018-11-29T14:35:40.395Z,7.80
2018-11-29T14:40:42.967Z,7.70
2018-11-29T14:45:45.599Z,7.60
2018-11-29T14:50:48.156Z,7.50
2018-11-29T14:55:50.712Z,7.50
2018-11-29T15:00:53.282Z,7.30
2018-11-29T15:05:55.867Z,7.10
2018-11-29T15:10:58.530Z,6.90
2018-11-29T15:16:01.070Z,6.80
2018-11-29T15:21:03.674Z,6.60
2018-11-29T15:26:06.268Z,6.60
2018-11-29T15:31:08.836Z,6.50
2018-11-29T15:36:11.383Z,6.50
2018-11-29T15:41:18.141Z,6.50
2018-11-29T15:46:16.492Z,6.40
2018-11-29T15:51:19.138Z,6.40
2018-11-29T15:56:21.758Z,6.40
2018-11-29T16:01:24.297Z,6.80
2018-11-29T16:06:26.876Z,7.70
2018-11-29T16:11:29.484Z,8.10
2018-11-29T16:16:32.048Z,8.50
2018-11-29T16:21:34.594Z,8.70
2018-11-29T16:26:37.142Z,8.80
2018-11-29T16:31:39.702Z,8.80
2018-11-29T16:36:42.270Z,8.30
2018-11-29T16:41:44.924Z,11.30
2018-11-29T16:46:47.548Z,6.90
2018-11-29T16:51:50.175Z,6.50
2018-11-29T16:56:56.944Z,6.30
2018-11-29T17:01:59.506Z,6.10
2018-11-29T17:07:04.220Z,6.10
2018-11-29T17:12:06.907Z,6.00
2018-11-29T17:17:09.465Z,6.30
2018-11-29T17:22:12.045Z,6.00
2018-11-29T17:27:14.644Z,6.30
2018-11-29T17:32:17.210Z,5.80
2018-11-29T17:37:19.767Z,5.80
2018-11-29T17:42:22.374Z,5.90
2018-11-29T17:47:25.009Z,6.20
2018-11-29T17:52:27.566Z,6.30
2018-11-29T17:57:30.593Z,6.40
2018-11-29T18:02:33.163Z,6.50
2018-11-29T18:07:35.764Z,6.40
2018-11-29T18:12:38.410Z,6.30
2018-11-29T18:17:41.189Z,6.20
2018-11-29T18:22:43.849Z,6.00
2018-11-29T18:27:47.820Z,5.80
2018-11-29T18:32:50.440Z,5.60
2018-11-29T18:37:53.052Z,5.40
2018-11-29T18:42:56.993Z,5.20
2018-11-29T18:47:59.790Z,4.90
2018-11-29T18:53:02.465Z,4.70
2018-11-29T18:58:05.847Z,4.60
2018-11-29T19:03:08.513Z,4.50
2018-11-29T19:08:11.162Z,4.30
2018-11-29T19:13:13.908Z,4.10
2018-11-29T19:18:16.468Z,3.90
2018-11-29T19:23:19.027Z,3.70
2018-11-29T19:28:21.618Z,3.60
2018-11-29T19:33:25.751Z,3.50
2018-11-29T19:38:28.303Z,3.40
2018-11-29T19:43:31.053Z,6.10
2018-11-29T19:48:33.785Z,3.10
2018-11-29T19:53:36.566Z,3.20
2018-11-29T19:58:39.180Z,3.30
2018-11-29T20:03:42.762Z,3.40
2018-11-29T20:08:45.306Z,3.50
2018-11-29T20:13:47.958Z,3.70
2018-11-29T20:18:50.590Z,3.80
2018-11-29T20:23:53.312Z,3.80
2018-11-29T20:28:55.919Z,3.80
2018-11-29T20:33:58.631Z,3.90
2018-11-29T20:39:01.206Z,4.00
2018-11-29T20:44:03.796Z,4.00
2018-11-29T20:49:06.397Z,4.10
2018-11-29T20:54:08.997Z,4.20
2018-11-29T20:59:11.560Z,4.20
2018-11-29T21:04:14.134Z,4.30
2018-11-29T21:09:16.711Z,4.30
2018-11-29T21:14:19.264Z,4.10
2018-11-29T21:19:21.824Z,4.00
2018-11-29T21:24:24.412Z,3.70
2018-11-29T21:29:26.993Z,3.50
2018-11-29T21:34:29.615Z,3.30
2018-11-29T21:39:32.174Z,3.10
2018-11-29T21:44:34.786Z,3.00
2018-11-29T21:49:37.465Z,2.90
2018-11-29T21:54:40.061Z,2.80
2018-11-29T21:59:42.652Z,2.80
2018-11-29T22:04:45.198Z,2.80
2018-11-29T22:09:47.765Z,2.80
2018-11-29T22:14:50.295Z,2.80
2018-11-29T22:19:52.902Z,2.80
2018-11-29T22:24:55.478Z,2.80
2018-11-29T22:29:58.014Z,2.80
2018-11-29T22:35:00.573Z,2.70
2018-11-29T22:40:03.193Z,2.70
2018-11-29T22:45:06.984Z,2.60
2018-11-29T22:50:09.592Z,2.70
2018-11-29T22:55:12.149Z,2.80
2018-11-29T23:00:17.686Z,2.90
2018-11-29T23:05:20.359Z,2.80
2018-11-29T23:10:22.914Z,2.80
2018-11-29T23:15:25.479Z,2.50
2018-11-29T23:20:28.018Z,2.30
2018-11-29T23:25:30.624Z,2.20
2018-11-29T23:30:33.219Z,2.20
2018-11-29T23:35:35.769Z,2.20
2018-11-29T23:40:38.332Z,2.20
2018-11-29T23:45:40.926Z,2.30
2018-11-29T23:50:43.519Z,2.30
2018-11-29T23:55:46.063Z,2.20
